createdAt,value
2019-01-06T00:01:12.536Z,15.05
2019-01-06T00:03:49.042Z,11.63
2019-01-06T00:06:15.844Z,12.65
2019-01-06T00:08:55.561Z,8.00
2019-01-06T00:11:26.205Z,12.37
2019-01-06T00:13:56.754Z,12.95
2019-01-06T00:16:36.473Z,13.05
2019-01-06T00:19:01.669Z,11.00
2019-01-06T00:21:37.081Z,12.65
2019-01-06T00:24:19.982Z,11.75
2019-01-06T00:26:46.386Z,16.60
2019-01-06T00:29:25.774Z,13.15
2019-01-06T00:31:45.994Z,7.80
2019-01-06T00:34:09.017Z,8.80
2019-01-06T00:36:45.706Z,8.83
2019-01-06T00:38:59.415Z,6.17
2019-01-06T00:41:23.835Z,11.88
2019-01-06T00:43:51.412Z,7.37
2019-01-06T00:46:16.021Z,5.95
2019-01-06T00:48:39.400Z,6.85
2019-01-06T00:51:12.853Z,5.78
2019-01-06T00:53:49.069Z,4.10
2019-01-06T00:56:09.052Z,5.00
2019-01-06T00:58:53.683Z,6.58
2019-01-06T01:01:36.425Z,5.30
2019-01-06T01:04:03.868Z,9.38
2019-01-06T01:06:40.301Z,11.80
2019-01-06T01:09:19.764Z,6.17
2019-01-06T01:11:52.577Z,9.25
2019-01-06T01:14:30.415Z,6.15
2019-01-06T01:17:05.608Z,6.45
2019-01-06T01:19:29.147Z,5.53
2019-01-06T01:21:53.569Z,6.17
2019-01-06T01:24:23.940Z,9.63
2019-01-06T01:27:03.683Z,9.78
2019-01-06T01:29:27.046Z,13.53
2019-01-06T01:31:59.128Z,15.50
2019-01-06T01:34:29.835Z,5.80
2019-01-06T01:37:00.062Z,9.88
2019-01-06T01:39:23.708Z,9.45
2019-01-06T01:41:47.179Z,7.85
2019-01-06T01:44:17.731Z,5.95
2019-01-06T01:46:49.261Z,12.20
2019-01-06T01:49:13.655Z,13.40
2019-01-06T01:51:36.439Z,22.10
2019-01-06T01:54:10.701Z,17.82
2019-01-06T01:56:53.453Z,21.07
2019-01-06T01:59:16.708Z,14.28
2019-01-06T02:01:52.991Z,19.55
2019-01-06T02:04:35.888Z,12.18
2019-01-06T02:06:55.627Z,19.27
2019-01-06T02:09:30.409Z,25.50
2019-01-06T02:12:04.012Z,28.30
2019-01-06T02:14:16.915Z,20.40
2019-01-06T02:16:44.512Z,26.82
2019-01-06T02:19:03.814Z,30.12
2019-01-06T02:21:28.486Z,23.47
2019-01-06T02:23:55.878Z,20.37
2019-01-06T02:26:30.005Z,22.13
2019-01-06T02:28:53.613Z,20.57
2019-01-06T02:31:23.025Z,24.12
2019-01-06T02:33:57.084Z,23.38
2019-01-06T02:36:26.004Z,22.27
2019-01-06T02:39:00.267Z,35.48
2019-01-06T02:41:39.847Z,30.32
2019-01-06T02:44:12.577Z,31.68
2019-01-06T02:46:46.053Z,33.92
2019-01-06T02:49:09.210Z,30.92
2019-01-06T02:51:39.651Z,24.15
2019-01-06T02:54:09.910Z,28.20
2019-01-06T02:56:46.291Z,22.93
2019-01-06T02:59:15.241Z,40.92
2019-01-06T03:01:40.194Z,30.60
2019-01-06T03:04:10.419Z,19.12
2019-01-06T03:06:40.791Z,16.77
2019-01-06T03:09:04.898Z,20.88
2019-01-06T03:11:38.771Z,21.50
2019-01-06T03:14:08.900Z,16.75
2019-01-06T03:16:39.222Z,13.75
2019-01-06T03:19:06.390Z,15.63
2019-01-06T03:21:29.306Z,14.38
2019-01-06T03:24:02.470Z,14.35
2019-01-06T03:26:35.828Z,15.53
2019-01-06T03:29:08.606Z,7.37
2019-01-06T03:31:31.867Z,14.60
2019-01-06T03:33:56.226Z,12.40
2019-01-06T03:36:33.958Z,14.45
2019-01-06T03:39:05.170Z,15.10
2019-01-06T03:41:38.234Z,14.28
2019-01-06T03:44:21.326Z,13.03
2019-01-06T03:46:47.822Z,11.57
2019-01-06T03:49:11.438Z,7.37
2019-01-06T03:51:47.866Z,12.85
2019-01-06T03:54:24.241Z,11.93
2019-01-06T03:56:48.933Z,17.20
2019-01-06T03:59:14.606Z,35.60
2019-01-06T04:01:50.959Z,22.07
2019-01-06T04:04:15.382Z,21.80
2019-01-06T04:06:38.322Z,17.65
2019-01-06T04:09:23.074Z,14.78
2019-01-06T04:11:53.690Z,18.67
2019-01-06T04:14:31.124Z,18.23
2019-01-06T04:16:54.270Z,14.43
2019-01-06T04:19:22.665Z,29.80
2019-01-06T04:21:45.918Z,30.10
2019-01-06T04:24:10.487Z,27.62
2019-01-06T04:26:38.301Z,45.50
2019-01-06T04:29:01.569Z,27.65
2019-01-06T04:31:29.439Z,24.00
2019-01-06T04:34:10.027Z,13.50
2019-01-06T04:36:43.402Z,6.75
2019-01-06T04:39:13.410Z,23.40
2019-01-06T04:41:40.985Z,29.25
2019-01-06T04:44:21.119Z,19.02
2019-01-06T04:47:03.449Z,21.12
2019-01-06T04:49:43.461Z,21.73
2019-01-06T04:52:23.542Z,16.10
2019-01-06T04:54:46.816Z,11.20
2019-01-06T04:57:23.910Z,18.20
2019-01-06T05:00:02.071Z,6.53
2019-01-06T05:02:29.042Z,19.05
2019-01-06T05:04:51.923Z,16.60
2019-01-06T05:07:14.331Z,16.97
2019-01-06T05:09:47.490Z,13.60
2019-01-06T05:12:11.861Z,10.53
2019-01-06T05:14:51.293Z,7.55
2019-01-06T05:17:14.429Z,8.38
2019-01-06T05:19:37.647Z,4.40
2019-01-06T05:22:31.212Z,7.53
2019-01-06T05:24:54.278Z,3.33
2019-01-06T05:27:17.487Z,3.05
2019-01-06T05:29:56.913Z,5.62
2019-01-06T05:32:24.380Z,15.30
2019-01-06T05:34:50.872Z,9.98
2019-01-06T05:37:14.057Z,14.78
2019-01-06T05:39:36.993Z,12.25
2019-01-06T05:41:59.977Z,11.40
2019-01-06T05:44:33.350Z,7.58
2019-01-06T05:47:13.323Z,9.05
2019-01-06T05:49:44.752Z,9.40
2019-01-06T05:52:08.177Z,8.15
2019-01-06T05:54:31.553Z,8.98
2019-01-06T05:57:00.866Z,8.10
2019-01-06T05:59:28.501Z,5.47
2019-01-06T06:01:46.535Z,9.83
2019-01-06T06:04:26.630Z,5.78
2019-01-06T06:06:49.962Z,2.00
2019-01-06T06:09:13.109Z,9.05
2019-01-06T06:11:41.302Z,8.70
2019-01-06T06:14:17.993Z,8.43
2019-01-06T06:16:41.181Z,10.53
2019-01-06T06:19:19.078Z,10.85
2019-01-06T06:21:42.385Z,10.90
2019-01-06T06:24:05.358Z,9.13
2019-01-06T06:26:42.126Z,10.88
2019-01-06T06:28:59.965Z,4.47
2019-01-06T06:31:22.865Z,4.33
2019-01-06T06:33:46.534Z,3.75
2019-01-06T06:36:11.150Z,4.37
2019-01-06T06:38:34.580Z,3.45
2019-01-06T06:40:53.426Z,5.25
2019-01-06T06:43:09.597Z,5.33
2019-01-06T06:45:38.477Z,5.80
2019-01-06T06:48:07.378Z,7.28
2019-01-06T06:50:40.978Z,3.80
2019-01-06T06:52:56.400Z,3.58
2019-01-06T06:55:11.966Z,5.83
2019-01-06T06:58:18.505Z,7.03
2019-01-06T07:01:13.080Z,3.42
2019-01-06T07:03:44.443Z,10.50
2019-01-06T07:06:26.659Z,3.22
2019-01-06T07:09:00.022Z,3.98
2019-01-06T07:11:41.795Z,3.20
2019-01-06T07:13:56.918Z,4.35
2019-01-06T07:16:27.621Z,4.85
2019-01-06T07:18:54.943Z,4.72
2019-01-06T07:21:18.115Z,4.75
2019-01-06T07:23:43.381Z,4.45
2019-01-06T07:26:10.556Z,3.33
2019-01-06T07:28:35.258Z,4.25
2019-01-06T07:31:13.524Z,5.58
2019-01-06T07:33:41.110Z,8.65
2019-01-06T07:36:15.353Z,4.80
2019-01-06T07:39:04.187Z,6.17
2019-01-06T07:41:28.174Z,6.55
2019-01-06T07:43:53.891Z,7.33
2019-01-06T07:46:19.060Z,8.50
2019-01-06T07:48:43.264Z,5.83
2019-01-06T07:51:04.271Z,7.45
2019-01-06T07:53:29.176Z,8.75
2019-01-06T07:55:56.909Z,5.75
2019-01-06T07:58:24.431Z,7.75
2019-01-06T08:01:30.834Z,6.17
2019-01-06T08:03:33.816Z,4.78
2019-01-06T08:05:58.569Z,6.85
2019-01-06T08:08:17.730Z,4.70
2019-01-06T08:10:41.365Z,4.58
2019-01-06T08:13:14.106Z,5.65
2019-01-06T08:15:56.946Z,5.42
2019-01-06T08:18:26.937Z,5.55
2019-01-06T08:21:00.664Z,5.80
2019-01-06T08:23:43.340Z,3.62
2019-01-06T08:26:12.686Z,4.05
2019-01-06T08:28:45.811Z,6.97
2019-01-06T08:31:15.626Z,4.75
2019-01-06T08:33:55.889Z,2.40
2019-01-06T08:36:19.205Z,3.05
2019-01-06T08:38:52.452Z,6.05
2019-01-06T08:41:28.735Z,4.75
2019-01-06T08:44:09.437Z,1.25
2019-01-06T08:46:32.702Z,2.62
2019-01-06T08:49:00.942Z,3.95
2019-01-06T08:51:21.111Z,6.17
2019-01-06T08:53:38.578Z,4.25
2019-01-06T08:56:05.003Z,6.17
2019-01-06T08:58:36.189Z,5.72
2019-01-06T09:01:00.745Z,5.87
2019-01-06T09:03:35.145Z,5.05
2019-01-06T09:05:59.138Z,5.97
2019-01-06T09:08:33.425Z,5.15
2019-01-06T09:10:59.810Z,5.15
2019-01-06T09:13:25.425Z,6.00
2019-01-06T09:15:50.855Z,4.75
2019-01-06T09:18:27.467Z,7.30
2019-01-06T09:20:50.383Z,6.12
2019-01-06T09:23:21.658Z,5.45
2019-01-06T09:25:46.443Z,5.10
2019-01-06T09:28:11.721Z,4.97
2019-01-06T09:30:36.618Z,7.80
2019-01-06T09:33:13.174Z,6.05
2019-01-06T09:35:36.595Z,6.10
2019-01-06T09:38:07.625Z,6.17
2019-01-06T09:40:32.859Z,6.58
2019-01-06T09:43:00.674Z,6.67
2019-01-06T09:45:22.127Z,6.58
2019-01-06T09:47:50.832Z,8.28
2019-01-06T09:50:14.321Z,8.25
2019-01-06T09:52:37.778Z,8.28
2019-01-06T09:55:11.273Z,12.95
2019-01-06T09:57:34.813Z,7.62
2019-01-06T10:00:08.275Z,8.08
2019-01-06T10:02:41.653Z,7.15
2019-01-06T10:05:04.892Z,7.65
2019-01-06T10:07:31.250Z,6.47
2019-01-06T10:09:58.754Z,6.55
2019-01-06T10:12:26.122Z,7.92
2019-01-06T10:14:59.295Z,11.25
2019-01-06T10:17:24.080Z,6.90
2019-01-06T10:19:48.652Z,7.00
2019-01-06T10:22:19.633Z,8.03
2019-01-06T10:24:42.777Z,7.78
2019-01-06T10:27:09.690Z,7.10
2019-01-06T10:29:33.001Z,8.20
2019-01-06T10:32:03.144Z,8.80
2019-01-06T10:34:29.640Z,7.70
2019-01-06T10:37:09.073Z,8.93
2019-01-06T10:39:36.336Z,6.40
2019-01-06T10:42:00.597Z,5.87
2019-01-06T10:44:42.970Z,5.40
2019-01-06T10:47:03.540Z,5.77
2019-01-06T10:49:28.253Z,4.10
2019-01-06T10:51:50.969Z,3.67
2019-01-06T10:54:13.719Z,4.57
2019-01-06T10:56:35.614Z,8.17
2019-01-06T10:59:01.881Z,5.63
2019-01-06T11:01:32.021Z,4.85
2019-01-06T11:03:56.386Z,4.53
2019-01-06T11:06:23.551Z,3.92
2019-01-06T11:08:53.774Z,4.80
2019-01-06T11:11:18.158Z,4.62
2019-01-06T11:13:54.601Z,4.60
2019-01-06T11:16:19.006Z,4.47
2019-01-06T11:18:50.913Z,4.78
2019-01-06T11:21:27.565Z,5.60
2019-01-06T11:23:51.233Z,5.08
2019-01-06T11:26:15.776Z,4.87
2019-01-06T11:28:39.306Z,6.67
2019-01-06T11:31:06.566Z,5.40
2019-01-06T11:33:27.959Z,6.17
2019-01-06T11:35:55.562Z,5.22
2019-01-06T11:38:38.327Z,6.65
2019-01-06T11:41:08.813Z,4.20
2019-01-06T11:43:34.661Z,8.13
2019-01-06T11:46:01.990Z,5.85
2019-01-06T11:48:35.661Z,5.28
2019-01-06T11:50:58.910Z,6.58
2019-01-06T11:53:35.663Z,6.80
2019-01-06T11:56:04.519Z,8.23
2019-01-06T11:58:30.306Z,5.65
2019-01-06T12:01:17.421Z,5.85
2019-01-06T12:03:41.990Z,6.30
2019-01-06T12:06:05.353Z,5.10
2019-01-06T12:08:29.859Z,6.30
2019-01-06T12:10:59.864Z,6.25
2019-01-06T12:13:24.946Z,6.75
2019-01-06T12:15:58.728Z,5.95
2019-01-06T12:18:38.406Z,7.15
2019-01-06T12:21:01.958Z,6.25
2019-01-06T12:23:26.368Z,4.67
2019-01-06T12:25:44.317Z,6.85
2019-01-06T12:28:10.885Z,4.83
2019-01-06T12:30:38.682Z,7.40
2019-01-06T12:33:15.022Z,6.33
2019-01-06T12:35:51.650Z,5.17
2019-01-06T12:38:18.823Z,5.97
2019-01-06T12:40:46.203Z,5.85
2019-01-06T12:43:07.693Z,4.58
2019-01-06T12:45:25.609Z,3.90
2019-01-06T12:47:49.275Z,4.87
2019-01-06T12:50:03.800Z,3.70
2019-01-06T12:52:27.807Z,4.55
2019-01-06T12:54:52.459Z,5.35
2019-01-06T12:57:26.259Z,5.80
2019-01-06T12:59:53.522Z,2.33
2019-01-06T13:02:23.437Z,1.85
2019-01-06T13:04:46.455Z,1.50
2019-01-06T13:07:14.422Z,1.02
2019-01-06T13:09:50.393Z,0.80
2019-01-06T13:12:13.586Z,1.40
2019-01-06T13:14:54.041Z,2.22
2019-01-06T13:17:22.480Z,0.88
2019-01-06T13:19:58.150Z,0.98
2019-01-06T13:22:28.813Z,0.80
2019-01-06T13:25:10.224Z,0.75
2019-01-06T13:27:43.831Z,0.62
2019-01-06T13:30:14.661Z,0.60
2019-01-06T13:32:37.883Z,0.70
2019-01-06T13:35:01.422Z,0.70
2019-01-06T13:37:24.066Z,0.80
2019-01-06T13:39:57.435Z,1.12
2019-01-06T13:42:28.093Z,0.72
2019-01-06T13:44:52.029Z,2.72
2019-01-06T13:47:24.209Z,0.70
2019-01-06T13:49:51.858Z,0.85
2019-01-06T13:52:18.981Z,0.70
2019-01-06T13:54:43.393Z,0.82
2019-01-06T13:57:06.744Z,1.27
2019-01-06T13:59:30.284Z,0.90
2019-01-06T14:02:06.737Z,0.80
2019-01-06T14:04:23.337Z,0.82
2019-01-06T14:06:50.678Z,0.80
2019-01-06T14:09:16.706Z,0.80
2019-01-06T14:11:40.490Z,3.72
2019-01-06T14:14:04.918Z,0.80
2019-01-06T14:16:43.173Z,1.95
2019-01-06T14:19:06.461Z,2.27
2019-01-06T14:21:29.325Z,1.00
2019-01-06T14:23:52.561Z,0.98
2019-01-06T14:26:20.689Z,1.00
2019-01-06T14:28:57.221Z,0.65
2019-01-06T14:31:32.257Z,0.93
2019-01-06T14:33:57.646Z,0.70
2019-01-06T14:36:34.180Z,0.80
2019-01-06T14:38:57.359Z,0.70
2019-01-06T14:41:24.885Z,1.60
2019-01-06T14:43:49.275Z,1.77
2019-01-06T14:46:16.456Z,0.85
2019-01-06T14:48:42.463Z,1.37
2019-01-06T14:51:12.898Z,0.60
2019-01-06T14:53:55.889Z,1.05
2019-01-06T14:56:19.499Z,0.60
2019-01-06T14:58:33.099Z,0.93
2019-01-06T15:01:06.370Z,0.60
2019-01-06T15:03:40.355Z,1.30
2019-01-06T15:06:03.813Z,1.22
2019-01-06T15:08:40.429Z,1.25
2019-01-06T15:11:10.709Z,4.42
2019-01-06T15:13:33.942Z,1.47
2019-01-06T15:16:10.704Z,3.90
2019-01-06T15:18:44.434Z,3.27
2019-01-06T15:21:14.790Z,1.40
2019-01-06T15:23:45.062Z,1.35
2019-01-06T15:26:27.636Z,1.27
2019-01-06T15:28:50.337Z,1.47
2019-01-06T15:31:13.206Z,0.90
2019-01-06T15:33:36.358Z,4.65
2019-01-06T15:36:00.750Z,1.00
2019-01-06T15:38:40.773Z,2.42
2019-01-06T15:41:17.779Z,2.60
2019-01-06T15:43:41.403Z,2.20
2019-01-06T15:46:08.810Z,1.25
2019-01-06T15:48:31.902Z,1.02
2019-01-06T15:51:02.343Z,0.95
2019-01-06T15:53:27.932Z,0.90
2019-01-06T15:56:01.254Z,1.00
2019-01-06T15:58:29.247Z,3.87
2019-01-06T16:00:52.332Z,1.45
2019-01-06T16:03:26.084Z,0.93
2019-01-06T16:05:53.148Z,0.90
2019-01-06T16:08:24.230Z,0.60
2019-01-06T16:10:47.828Z,3.62
2019-01-06T16:13:24.751Z,1.20
2019-01-06T16:16:00.006Z,0.90
2019-01-06T16:18:23.161Z,0.75
2019-01-06T16:21:03.095Z,2.15
2019-01-06T16:23:48.751Z,1.77
2019-01-06T16:26:11.966Z,2.65
2019-01-06T16:28:39.397Z,6.00
2019-01-06T16:31:33.612Z,2.72
2019-01-06T16:33:51.538Z,1.07
2019-01-06T16:36:16.329Z,0.90
2019-01-06T16:38:40.990Z,1.20
2019-01-06T16:41:05.421Z,1.35
2019-01-06T16:43:32.866Z,1.05
2019-01-06T16:46:11.287Z,1.50
2019-01-06T16:48:36.853Z,0.70
2019-01-06T16:51:08.410Z,0.85
2019-01-06T16:53:44.519Z,0.80
2019-01-06T16:56:15.212Z,1.12
2019-01-06T16:58:45.733Z,0.50
2019-01-06T17:01:22.406Z,0.82
2019-01-06T17:04:05.434Z,1.27
2019-01-06T17:06:33.179Z,1.25
2019-01-06T17:08:58.232Z,1.55
2019-01-06T17:11:21.564Z,1.25
2019-01-06T17:13:52.384Z,1.87
2019-01-06T17:16:19.927Z,1.10
2019-01-06T17:18:40.214Z,0.78
2019-01-06T17:21:01.553Z,1.35
2019-01-06T17:23:40.709Z,2.47
2019-01-06T17:26:00.538Z,2.60
2019-01-06T17:28:40.233Z,1.50
2019-01-06T17:31:16.694Z,1.40
2019-01-06T17:33:34.852Z,0.60
2019-01-06T17:36:17.781Z,1.00
2019-01-06T17:38:41.250Z,0.80
2019-01-06T17:41:14.375Z,1.10
2019-01-06T17:43:39.095Z,1.12
2019-01-06T17:46:06.341Z,1.65
2019-01-06T17:48:35.186Z,2.70
2019-01-06T17:51:14.955Z,2.35
2019-01-06T17:54:11.589Z,0.93
2019-01-06T17:56:51.939Z,0.85
2019-01-06T18:04:09.089Z,1.45
2019-01-06T18:06:42.567Z,0.70
2019-01-06T18:09:05.973Z,0.60
2019-01-06T18:11:24.984Z,0.72
2019-01-06T18:14:01.874Z,0.70
2019-01-06T18:16:32.570Z,1.95
2019-01-06T18:19:02.749Z,0.90
2019-01-06T18:21:39.266Z,3.70
2019-01-06T18:24:03.655Z,1.75
2019-01-06T18:26:30.909Z,0.88
2019-01-06T18:28:54.088Z,1.45
2019-01-06T18:31:27.804Z,0.70
2019-01-06T18:33:58.328Z,0.95
2019-01-06T18:36:21.481Z,0.72
2019-01-06T18:38:48.815Z,1.17
2019-01-06T18:41:12.961Z,0.62
2019-01-06T18:43:40.190Z,2.10
2019-01-06T18:46:03.707Z,2.77
2019-01-06T18:48:28.685Z,1.98
2019-01-06T18:50:51.935Z,4.22
2019-01-06T18:53:31.841Z,2.65
2019-01-06T18:56:02.825Z,1.45
2019-01-06T18:58:29.989Z,2.75
2019-01-06T19:00:57.639Z,1.40
2019-01-06T19:03:21.042Z,1.98
2019-01-06T19:05:40.873Z,2.65
2019-01-06T19:08:05.703Z,6.80
2019-01-06T19:10:48.214Z,3.40
2019-01-06T19:13:18.329Z,3.98
2019-01-06T19:15:43.772Z,31.97
2019-01-06T19:18:18.069Z,31.62
2019-01-06T19:20:51.849Z,24.07
2019-01-06T19:23:18.092Z,20.45
2019-01-06T19:25:50.414Z,11.33
2019-01-06T19:28:14.863Z,5.65
2019-01-06T19:30:45.339Z,5.30
2019-01-06T19:35:32.274Z,4.22
2019-01-06T19:37:59.456Z,28.40
2019-01-06T19:40:37.579Z,10.28
2019-01-06T19:42:54.748Z,24.63
2019-01-06T19:45:25.242Z,25.55
2019-01-06T19:47:48.429Z,32.85
2019-01-06T19:50:11.877Z,16.35
2019-01-06T19:52:42.326Z,18.20
2019-01-06T19:54:58.623Z,9.13
2019-01-06T19:57:32.658Z,11.75
2019-01-06T19:59:55.777Z,44.38
2019-01-06T20:02:32.857Z,16.73
2019-01-06T20:07:44.671Z,12.73
2019-01-06T20:10:13.303Z,25.45
2019-01-06T20:12:47.249Z,32.70
2019-01-06T20:15:10.609Z,25.80
2019-01-06T20:17:39.278Z,38.98
2019-01-06T20:20:02.342Z,42.15
2019-01-06T20:22:25.822Z,38.00
2019-01-06T20:25:02.771Z,28.35
2019-01-06T20:27:28.124Z,19.92
2019-01-06T20:29:51.602Z,18.23
2019-01-06T20:32:23.146Z,16.82
2019-01-06T20:34:57.008Z,16.07
2019-01-06T20:37:22.822Z,14.10
2019-01-06T20:39:46.563Z,5.08
2019-01-06T20:42:18.502Z,13.28
2019-01-06T20:44:38.235Z,25.08
2019-01-06T20:47:14.282Z,22.07
2019-01-06T20:49:48.308Z,13.25
2019-01-06T20:52:18.832Z,17.77
2019-01-06T20:54:49.601Z,10.28
2019-01-06T20:57:26.984Z,11.90
2019-01-06T20:59:45.987Z,13.53
2019-01-06T21:02:05.290Z,10.32
2019-01-06T21:04:33.129Z,11.78
2019-01-06T21:07:09.359Z,9.85
2019-01-06T21:09:46.578Z,7.42
2019-01-06T21:12:25.068Z,9.28
2019-01-06T21:14:56.007Z,6.97
2019-01-06T21:17:20.748Z,7.30
2019-01-06T21:20:04.712Z,6.60
2019-01-06T21:22:38.271Z,13.13
2019-01-06T21:25:04.961Z,9.48
2019-01-06T21:27:28.589Z,9.58
2019-01-06T21:29:53.614Z,9.25
2019-01-06T21:32:17.118Z,9.48
2019-01-06T21:34:40.146Z,7.50
2019-01-06T21:37:07.874Z,8.83
2019-01-06T21:39:28.824Z,7.22
2019-01-06T21:42:08.421Z,9.13
2019-01-06T21:44:33.109Z,12.58
2019-01-06T21:46:58.305Z,13.68
2019-01-06T21:49:21.752Z,13.70
2019-01-06T21:52:01.418Z,10.68
2019-01-06T21:54:30.531Z,6.62
2019-01-06T21:57:10.220Z,12.82
2019-01-06T21:59:25.771Z,26.40
2019-01-06T22:01:50.265Z,26.52
2019-01-06T22:04:11.961Z,29.65
2019-01-06T22:06:35.414Z,17.00
2019-01-06T22:09:05.602Z,9.90
2019-01-06T22:11:42.829Z,7.10
2019-01-06T22:14:13.311Z,8.95
2019-01-06T22:16:40.777Z,6.55
2019-01-06T22:19:08.146Z,3.95
2019-01-06T22:21:25.381Z,4.95
2019-01-06T22:24:08.847Z,3.90
2019-01-06T22:26:59.042Z,6.80
2019-01-06T22:29:22.801Z,7.85
2019-01-06T22:32:00.182Z,4.97
2019-01-06T22:34:24.570Z,5.75
2019-01-06T22:37:05.077Z,3.42
2019-01-06T22:39:38.629Z,3.85
2019-01-06T22:42:02.177Z,4.17
2019-01-06T22:44:28.081Z,4.67
2019-01-06T22:46:58.516Z,4.60
2019-01-06T22:49:22.126Z,5.65
2019-01-06T22:51:58.853Z,5.22
2019-01-06T22:54:24.863Z,4.35
2019-01-06T23:06:51.781Z,7.95
2019-01-06T23:09:18.503Z,5.20
2019-01-06T23:12:01.697Z,4.92
2019-01-06T23:14:36.903Z,6.75
2019-01-06T23:17:10.584Z,4.95
2019-01-06T23:19:35.011Z,5.37
2019-01-06T23:22:01.497Z,5.60
2019-01-06T23:24:29.410Z,5.30
2019-01-06T23:27:02.126Z,4.90
2019-01-06T23:29:32.862Z,5.22
2019-01-06T23:31:54.395Z,7.67
2019-01-06T23:34:18.083Z,8.70
2019-01-06T23:37:00.898Z,7.12
2019-01-06T23:39:25.556Z,8.05
2019-01-06T23:42:11.444Z,6.03
2019-01-06T23:44:37.203Z,7.53
2019-01-06T23:47:00.529Z,7.42
2019-01-06T23:49:23.515Z,6.58
2019-01-06T23:51:53.933Z,6.33
2019-01-06T23:54:18.872Z,6.95
2019-01-06T23:56:38.574Z,6.00
2019-01-06T23:59:13.658Z,6.05
